Time;durP1;ratioP1;P1;durP2;ratioP2;P2;SDS_P1;SDS_P2;PMS_P1;PMS_P2;Temp;Humidity;BMP_temperature;BMP_pressure;BME280_temperature;BME280_humidity;BME280_pressure;Samples;Min_cycle;Max_cycle;Signal;HPM_P1;HPM_P2
2021/12/25 00:00:45;;;;;;;;;;;;;;;-144.99;81.87;52766.09;5092799;28;19927;-83
2021/12/25 00:03:15;;;;;;;;;;;;;;;-144.99;82.29;52733.47;5091466;28;20469;-77
2021/12/25 00:05:41;;;;;;;;;;;;;;;-144.99;82.39;52713.09;5098605;28;19920;-79
2021/12/25 00:08:08;;;;;;;;;;;;;;;-144.99;82.64;52721.22;5110610;28;19936;-79
2021/12/25 00:10:35;;;;;;;;;;;;;;;-144.99;82.74;52729.38;5098256;28;20363;-78
2021/12/25 00:13:04;;;;;;;;;;;;;;;-144.99;82.95;52745.69;5095341;28;20071;-81
2021/12/25 00:15:31;;;;;;;;;;;;;;;-144.99;83.31;52717.16;5107255;28;19927;-80
2021/12/25 00:17:58;;;;;;;;;;;;;;;-144.99;83.38;52725.31;5095937;28;19920;-79
2021/12/25 00:20:25;;;;;;;;;;;;;;;-144.99;83.76;52741.63;5098168;28;19920;-80
2021/12/25 00:22:51;;;;;;;;;;;;;;;-144.99;83.79;52719.19;5097403;28;19928;-79
2021/12/25 00:25:19;;;;;;;;;;;;;;;-144.99;84.29;52737.53;5099585;28;19920;-79
2021/12/25 00:27:55;;;;;;;;;;;;;;;-144.99;84.86;52743.66;5099583;28;19973;-82
2021/12/25 00:30:36;;;;;;;;;;;;;;;-144.99;84.96;52733.47;5103085;28;19920;-79
2021/12/25 00:33:07;;;;;;;;;;;;;;;-144.99;85.30;52717.16;5100829;28;19920;-79
2021/12/25 00:35:34;;;;;;;;;;;;;;;-144.99;85.54;52753.84;5104592;28;19977;-78
2021/12/25 00:38:01;;;;;;;;;;;;;;;-144.99;85.78;52721.22;5102326;28;20384;-79
2021/12/25 00:40:29;;;;;;;;;;;;;;;-144.99;85.91;52737.53;5103180;28;19941;-79
2021/12/25 00:42:57;;;;;;;;;;;;;;;-144.99;86.05;52721.22;5097804;28;19920;-79
2021/12/25 00:45:26;;;;;;;;;;;;;;;-144.99;86.54;52704.94;5095248;28;19924;-78
2021/12/25 00:47:53;;;;;;;;;;;;;;;-144.99;87.07;52766.09;5094393;28;19939;-76
2021/12/25 00:50:19;;;;;;;;;;;;;;;-144.99;87.51;52753.84;5095824;28;20006;-79
2021/12/25 00:52:47;;;;;;;;;;;;;;;-144.99;87.91;52729.38;5096163;28;19955;-77
2021/12/25 00:55:15;;;;;;;;;;;;;;;-144.99;88.32;52719.19;5094771;28;20334;-78
2021/12/25 00:57:41;;;;;;;;;;;;;;;-144.99;88.42;52721.22;5097490;28;20435;-77
2021/12/25 01:00:12;;;;;;;;;;;;;;;-144.99;88.81;52757.94;5097664;28;19924;-78
2021/12/25 01:02:46;;;;;;;;;;;;;;;-144.99;88.85;52688.63;5095401;28;19920;-78
2021/12/25 01:05:13;;;;;;;;;;;;;;;-144.99;89.04;52745.69;5095096;28;19920;-80
2021/12/25 01:07:40;;;;;;;;;;;;;;;-144.99;89.41;52729.38;5095306;28;20374;-80
2021/12/25 01:10:13;;;;;;;;;;;;;;;-144.99;89.45;52719.19;5093800;28;19970;-78
2021/12/25 01:12:52;;;;;;;;;;;;;;;-144.99;89.63;52757.94;5094027;28;19925;-81
2021/12/25 01:15:24;;;;;;;;;;;;;;;-144.99;89.90;52778.31;5093598;28;19974;-80
2021/12/25 01:24:21;;;;;;;;;;;;;;;-144.99;90.03;52741.63;5084787;28;20697;-79
2021/12/25 01:29:35;;;;;;;;;;;;;;;-144.99;90.42;52766.09;5092219;22;19926;-72
2021/12/25 01:37:42;;;;;;;;;;;;;;;-144.99;90.72;52745.69;5078420;28;19920;-72
2021/12/25 01:40:26;;;;;;;;;;;;;;;-144.99;90.79;52762.00;5104527;28;19928;-74
2021/12/25 01:48:22;;;;;;;;;;;;;;;-144.99;91.48;52764.03;5099180;28;20022;-72
2021/12/25 01:50:50;;;;;;;;;;;;;;;-144.99;91.58;52745.69;5106075;28;19926;-72
2021/12/25 01:53:17;;;;;;;;;;;;;;;-144.99;91.52;52778.31;5104862;28;19928;-72
2021/12/25 01:55:43;;;;;;;;;;;;;;;-144.99;91.73;52733.47;5105196;28;19932;-72
2021/12/25 01:58:09;;;;;;;;;;;;;;;-144.99;91.76;52770.16;5110419;28;19920;-72
2021/12/25 02:00:38;;;;;;;;;;;;;;;-144.99;92.31;52762.00;5109010;28;19927;-72
2021/12/25 02:03:06;;;;;;;;;;;;;;;-144.99;91.96;52786.47;5109988;28;20382;-71
2021/12/25 02:05:33;;;;;;;;;;;;;;;-144.99;92.15;52753.84;5109165;28;20455;-72
2021/12/25 02:08:01;;;;;;;;;;;;;;;-144.99;91.98;52749.78;5110359;28;19920;-71
2021/12/25 02:10:27;;;;;;;;;;;;;;;-144.99;92.26;52768.13;5108703;28;19923;-70
2021/12/25 02:12:55;;;;;;;;;;;;;;;-144.99;92.34;52731.44;5110157;28;20223;-72
2021/12/25 02:15:24;;;;;;;;;;;;;;;-144.99;92.41;52745.69;5115764;28;19931;-73
2021/12/25 02:18:04;;;;;;;;;;;;;;;-144.99;92.65;52778.31;5125447;28;19955;-73
2021/12/25 02:20:38;;;;;;;;;;;;;;;-144.99;92.44;52729.38;5116606;28;19931;-72
2021/12/25 02:23:11;;;;;;;;;;;;;;;-144.99;92.67;52745.69;5107739;28;20385;-71
2021/12/25 02:25:37;;;;;;;;;;;;;;;-144.99;92.99;52745.69;5108244;28;19962;-73
2021/12/25 02:28:04;;;;;;;;;;;;;;;-144.99;92.86;52717.16;5102035;28;19985;-72
2021/12/25 02:30:31;;;;;;;;;;;;;;;-144.99;92.70;52745.69;5105782;28;19928;-72
2021/12/25 02:32:58;;;;;;;;;;;;;;;-144.99;92.94;52745.69;5108974;28;19924;-73
2021/12/25 02:35:25;;;;;;;;;;;;;;;-144.99;92.20;52729.38;5109298;28;19923;-72
2021/12/25 02:37:53;;;;;;;;;;;;;;;-144.99;92.49;52729.38;5109540;28;19934;-71
2021/12/25 02:40:20;;;;;;;;;;;;;;;-144.99;93.19;52743.66;5103695;28;19931;-72
2021/12/25 02:42:46;;;;;;;;;;;;;;;-144.99;93.05;52725.31;5109794;28;19935;-70
2021/12/25 02:45:16;;;;;;;;;;;;;;;-144.99;92.86;52745.69;5107886;28;19935;-73
2021/12/25 02:47:43;;;;;;;;;;;;;;;-144.99;92.77;52741.63;5104134;28;19961;-71
2021/12/25 02:50:10;;;;;;;;;;;;;;;-144.99;92.71;52778.31;5107994;28;19984;-72
2021/12/25 02:52:37;;;;;;;;;;;;;;;-144.99;92.54;52725.31;5108099;28;19931;-72
2021/12/25 02:55:05;;;;;;;;;;;;;;;-144.99;92.05;52721.22;5104793;28;19938;-72
2021/12/25 02:57:31;;;;;;;;;;;;;;;-144.99;93.29;52798.69;5103970;28;20309;-71
2021/12/25 02:59:58;;;;;;;;;;;;;;;-144.99;93.43;52709.00;5108486;28;19957;-72
2021/12/25 03:02:24;;;;;;;;;;;;;;;-144.99;93.99;52725.31;5102744;28;19928;-72
2021/12/25 03:04:51;;;;;;;;;;;;;;;-144.99;94.22;52713.09;5102734;28;19924;-72
2021/12/25 03:07:17;;;;;;;;;;;;;;;-144.99;94.12;52757.94;5109870;28;19924;-72
2021/12/25 03:09:44;;;;;;;;;;;;;;;-144.99;94.07;52762.00;5103990;28;19947;-72
2021/12/25 03:12:14;;;;;;;;;;;;;;;-144.99;93.79;52770.16;5109376;28;19928;-71
2021/12/25 03:15:01;;;;;;;;;;;;;;;-144.99;94.48;52749.78;5106864;28;20018;-71
2021/12/25 03:17:28;;;;;;;;;;;;;;;-144.99;94.95;52753.84;5106816;28;19928;-72
2021/12/25 03:19:55;;;;;;;;;;;;;;;-144.99;95.06;52749.78;5106233;28;19946;-72
2021/12/25 03:22:21;;;;;;;;;;;;;;;-144.99;95.33;52762.00;5109198;28;19950;-71
2021/12/25 03:24:48;;;;;;;;;;;;;;;-144.99;95.09;52739.56;5101865;28;19928;-72
2021/12/25 03:27:16;;;;;;;;;;;;;;;-144.99;95.13;52704.94;5103161;28;19927;-71
2021/12/25 03:29:42;;;;;;;;;;;;;;;-144.99;95.21;52725.31;5104596;28;19935;-72
2021/12/25 03:32:09;;;;;;;;;;;;;;;-144.99;95.20;52788.50;5102723;28;19940;-71
2021/12/25 03:34:35;;;;;;;;;;;;;;;-144.99;95.67;52725.31;5107906;28;19930;-72
2021/12/25 03:37:02;;;;;;;;;;;;;;;-144.99;95.77;52753.84;5104934;28;19934;-72
2021/12/25 03:39:29;;;;;;;;;;;;;;;-144.99;95.37;52729.38;5100036;28;20364;-71
2021/12/25 03:41:57;;;;;;;;;;;;;;;-144.99;95.73;52737.53;5107255;28;19924;-72
2021/12/25 03:44:24;;;;;;;;;;;;;;;-144.99;95.53;52782.38;5107888;28;19931;-72
2021/12/25 03:46:52;;;;;;;;;;;;;;;-144.99;95.59;52749.78;5122793;28;19924;-72
2021/12/25 03:49:28;;;;;;;;;;;;;;;-144.99;95.83;52762.00;5122140;28;19935;-73
2021/12/25 03:57:41;;;;;;;;;;;;;;;-144.99;96.24;52721.22;5122573;28;19977;-73
2021/12/25 04:00:12;;;;;;;;;;;;;;;-144.99;96.13;52764.03;5127949;28;19931;-72
2021/12/25 04:02:50;;;;;;;;;;;;;;;-144.99;96.39;52741.63;5127660;28;19924;-72
2021/12/25 04:05:19;;;;;;;;;;;;;;;-144.99;96.64;52749.78;5121787;28;19924;-72
2021/12/25 04:08:00;;;;;;;;;;;;;;;-144.99;96.37;52725.31;5126547;28;19979;-73
2021/12/25 04:10:27;;;;;;;;;;;;;;;-144.99;96.64;52737.53;5111352;28;19964;-71
2021/12/25 04:12:54;;;;;;;;;;;;;;;-144.99;97.10;52713.09;5108433;28;19923;-71
2021/12/25 04:15:21;;;;;;;;;;;;;;;-144.99;96.77;52747.72;5106460;28;19928;-70
2021/12/25 04:17:48;;;;;;;;;;;;;;;-144.99;96.63;52729.38;5108041;28;20399;-71
2021/12/25 04:20:14;;;;;;;;;;;;;;;-144.99;96.38;52717.16;5108241;28;19961;-71
2021/12/25 04:22:45;;;;;;;;;;;;;;;-144.99;96.38;52745.69;5108369;28;19928;-72
2021/12/25 04:25:12;;;;;;;;;;;;;;;-144.99;96.96;52749.78;5106328;28;19924;-71
2021/12/25 04:27:39;;;;;;;;;;;;;;;-144.99;96.18;52741.63;5108228;28;20022;-72
2021/12/25 04:30:19;;;;;;;;;;;;;;;-144.99;95.72;52762.00;5108368;28;19969;-71
2021/12/25 04:49:46;;;;;;;;;;;;;;;-144.99;95.83;52709.00;5102361;28;19976;-70
2021/12/25 05:03:21;;;;;;;;;;;;;;;-144.99;96.94;52745.69;5098633;28;19931;-72
2021/12/25 05:05:48;;;;;;;;;;;;;;;-144.99;97.08;52745.69;5102184;28;20327;-72
2021/12/25 05:08:15;;;;;;;;;;;;;;;-144.99;97.32;52766.09;5108373;28;20046;-72
2021/12/25 05:10:41;;;;;;;;;;;;;;;-144.99;97.79;52729.38;5106213;28;20401;-74
2021/12/25 05:13:07;;;;;;;;;;;;;;;-144.99;97.84;52749.78;5106619;28;19923;-72
2021/12/25 05:15:34;;;;;;;;;;;;;;;-144.99;98.14;52696.78;5102575;28;20396;-72
2021/12/25 05:18:01;;;;;;;;;;;;;;;-144.99;97.99;52786.47;5119110;28;19928;-73
2021/12/25 05:20:27;;;;;;;;;;;;;;;-144.99;97.43;52704.94;5120075;28;19924;-73
2021/12/25 05:22:55;;;;;;;;;;;;;;;-144.99;97.03;52753.84;5127455;28;19935;-73
2021/12/25 05:25:21;;;;;;;;;;;;;;;-144.99;97.25;52757.94;5127985;28;19930;-74
2021/12/25 05:27:49;;;;;;;;;;;;;;;-144.99;97.67;52713.09;5129570;28;19923;-73
2021/12/25 05:30:16;;;;;;;;;;;;;;;-144.99;97.74;52749.78;5122655;28;19936;-73
2021/12/25 05:32:42;;;;;;;;;;;;;;;-144.99;97.53;52727.34;5125867;28;20015;-73
2021/12/25 05:35:08;;;;;;;;;;;;;;;-144.99;98.19;52713.09;5125412;28;19932;-72
2021/12/25 05:37:35;;;;;;;;;;;;;;;-144.99;97.71;52700.84;5128480;28;19949;-73
2021/12/25 05:40:02;;;;;;;;;;;;;;;-144.99;97.46;52741.63;5119445;28;20409;-73
2021/12/25 05:42:29;;;;;;;;;;;;;;;-144.99;97.38;52753.84;5119354;28;19923;-73
2021/12/25 05:44:55;;;;;;;;;;;;;;;-144.99;97.92;52733.47;5118472;28;19932;-73
2021/12/25 05:47:21;;;;;;;;;;;;;;;-144.99;98.42;52762.00;5123110;28;19924;-73
2021/12/25 05:49:48;;;;;;;;;;;;;;;-144.99;98.50;52757.94;5121734;28;20002;-72
2021/12/25 05:52:14;;;;;;;;;;;;;;;-144.99;98.47;52745.69;5122001;28;19945;-72
2021/12/25 05:54:41;;;;;;;;;;;;;;;-144.99;97.69;52774.22;5116614;28;19995;-73
2021/12/25 05:57:08;;;;;;;;;;;;;;;-144.99;97.09;52749.78;5122016;28;19928;-73
2021/12/25 05:59:35;;;;;;;;;;;;;;;-144.99;96.82;52757.94;5120592;28;19927;-72
2021/12/25 06:02:01;;;;;;;;;;;;;;;-144.99;97.78;52749.78;5118495;28;19928;-73
2021/12/25 06:04:27;;;;;;;;;;;;;;;-144.99;97.98;52741.63;5119561;28;19924;-72
2021/12/25 06:06:54;;;;;;;;;;;;;;;-144.99;98.32;52741.63;5112309;28;20391;-72
2021/12/25 06:09:20;;;;;;;;;;;;;;;-144.99;99.02;52745.69;5111770;28;19924;-73
2021/12/25 06:11:46;;;;;;;;;;;;;;;-144.99;99.36;52721.22;5117472;28;19931;-73
2021/12/25 06:14:19;;;;;;;;;;;;;;;-144.99;99.48;52737.53;5117481;28;19924;-73
2021/12/25 06:16:45;;;;;;;;;;;;;;;-144.99;99.76;52751.81;5121596;28;19954;-73
2021/12/25 06:19:12;;;;;;;;;;;;;;;-144.99;99.75;52790.53;5123783;28;19946;-73
2021/12/25 06:21:38;;;;;;;;;;;;;;;-144.99;99.64;52727.34;5123441;28;19923;-73
2021/12/25 06:24:05;;;;;;;;;;;;;;;-144.99;99.36;52749.78;5114423;28;20349;-72
2021/12/25 06:26:32;;;;;;;;;;;;;;;-144.99;99.07;52753.84;5116681;28;19924;-72
2021/12/25 06:28:59;;;;;;;;;;;;;;;-144.99;99.46;52713.09;5108644;28;19928;-73
2021/12/25 06:31:26;;;;;;;;;;;;;;;-144.99;99.19;52753.84;5101050;28;19985;-71
2021/12/25 06:33:53;;;;;;;;;;;;;;;-144.99;98.84;52745.69;5096056;28;19928;-72
2021/12/25 06:36:19;;;;;;;;;;;;;;;-144.99;98.67;52694.72;5110330;28;19930;-72
2021/12/25 06:38:45;;;;;;;;;;;;;;;-144.99;98.30;52749.78;5092570;28;20180;-72
2021/12/25 06:41:12;;;;;;;;;;;;;;;-144.99;98.07;52762.00;5090663;28;20413;-72
2021/12/25 06:43:39;;;;;;;;;;;;;;;-144.99;98.36;52733.47;5104750;28;19945;-73
2021/12/25 06:46:05;;;;;;;;;;;;;;;-144.99;98.01;52729.38;5107906;28;19931;-73
2021/12/25 06:48:33;;;;;;;;;;;;;;;-144.99;97.86;52762.00;5095982;28;19924;-71
2021/12/25 06:50:59;;;;;;;;;;;;;;;-144.99;96.98;52733.47;5108686;28;19951;-72
2021/12/25 06:53:28;;;;;;;;;;;;;;;-144.99;97.35;52766.09;5102306;28;19931;-71
2021/12/25 06:55:54;;;;;;;;;;;;;;;-144.99;98.49;52800.72;5106341;28;20317;-71
2021/12/25 06:58:21;;;;;;;;;;;;;;;-144.99;98.55;52741.63;5108588;28;19931;-72
2021/12/25 07:00:48;;;;;;;;;;;;;;;-144.99;98.87;52733.47;5106900;28;19923;-72
2021/12/25 07:03:14;;;;;;;;;;;;;;;-144.99;98.51;52762.00;5108871;28;20309;-73
2021/12/25 07:05:42;;;;;;;;;;;;;;;-144.99;98.73;52753.84;5108402;28;20325;-71
2021/12/25 07:08:08;;;;;;;;;;;;;;;-144.99;98.90;52702.88;5108749;28;20387;-72
2021/12/25 07:10:34;;;;;;;;;;;;;;;-144.99;99.05;52737.53;5107834;28;19931;-71
2021/12/25 07:13:01;;;;;;;;;;;;;;;-144.99;99.33;52762.00;5109149;28;19934;-71
2021/12/25 07:15:28;;;;;;;;;;;;;;;-144.99;100.00;52749.78;5107286;28;19977;-72
2021/12/25 07:17:54;;;;;;;;;;;;;;;-144.99;100.00;52737.53;5108603;28;19924;-72
2021/12/25 07:20:20;;;;;;;;;;;;;;;-144.99;100.00;52717.16;5108270;28;20382;-71
2021/12/25 07:22:48;;;;;;;;;;;;;;;-144.99;100.00;52762.00;5106470;28;19924;-72
2021/12/25 07:25:14;;;;;;;;;;;;;;;-144.99;100.00;52741.63;5106587;28;19942;-71
2021/12/25 07:27:40;;;;;;;;;;;;;;;-144.99;100.00;52757.94;5108831;28;19924;-72
2021/12/25 07:30:07;;;;;;;;;;;;;;;-144.99;100.00;52713.09;5132097;22;20023;-78
2021/12/25 07:32:34;;;;;;;;;;;;;;;-144.99;100.00;52749.78;5104279;28;19924;-79
2021/12/25 07:35:00;;;;;;;;;;;;;;;-144.99;100.00;52755.88;5102327;28;19979;-78
2021/12/25 07:37:26;;;;;;;;;;;;;;;-144.99;100.00;52721.22;5104143;28;19931;-78
2021/12/25 07:39:54;;;;;;;;;;;;;;;-144.99;100.00;52766.09;5102668;28;20002;-77
2021/12/25 07:42:20;;;;;;;;;;;;;;;-144.99;100.00;52778.31;5103422;28;19924;-77
2021/12/25 07:44:53;;;;;;;;;;;;;;;-144.99;100.00;52725.31;5101894;28;19928;-78
2021/12/25 07:47:21;;;;;;;;;;;;;;;-144.99;100.00;52762.00;5103006;28;19924;-79
2021/12/25 07:49:48;;;;;;;;;;;;;;;-144.99;100.00;52729.38;5098358;28;20465;-78
2021/12/25 07:52:15;;;;;;;;;;;;;;;-144.99;99.97;52749.78;5092406;28;19924;-80
2021/12/25 07:54:41;;;;;;;;;;;;;;;-144.99;100.00;52764.03;5089991;28;19969;-78
2021/12/25 07:57:09;;;;;;;;;;;;;;;-144.99;100.00;52759.97;5084510;28;19931;-78
2021/12/25 07:59:35;;;;;;;;;;;;;;;-144.99;100.00;52733.47;5091326;28;19924;-77
2021/12/25 08:02:02;;;;;;;;;;;;;;;-144.99;100.00;52719.19;5092979;28;20469;-79
2021/12/25 08:04:28;;;;;;;;;;;;;;;-144.99;100.00;52692.69;5092003;28;20037;-78
2021/12/25 08:06:55;;;;;;;;;;;;;;;-144.99;100.00;52741.63;5092416;28;19924;-75
2021/12/25 08:09:28;;;;;;;;;;;;;;;-144.99;100.00;52753.84;5089579;28;19931;-77
2021/12/25 08:11:55;;;;;;;;;;;;;;;-144.99;99.53;52725.31;5090583;28;19935;-78
2021/12/25 08:14:25;;;;;;;;;;;;;;;-144.99;99.10;52739.56;5088022;28;20791;-77
2021/12/25 08:16:52;;;;;;;;;;;;;;;-144.99;98.47;52755.88;5091847;28;19928;-79
2021/12/25 08:19:18;;;;;;;;;;;;;;;-144.99;98.09;52721.22;5090429;28;19924;-78
2021/12/25 08:21:44;;;;;;;;;;;;;;;-144.99;97.25;52733.47;5090705;28;19924;-79
2021/12/25 08:24:11;;;;;;;;;;;;;;;-144.99;96.35;52725.31;5084845;28;19924;-79
2021/12/25 08:26:37;;;;;;;;;;;;;;;-144.99;95.52;52700.84;5091544;28;20087;-77
2021/12/25 08:29:03;;;;;;;;;;;;;;;-144.99;94.50;52713.09;5090537;28;19936;-81
2021/12/25 08:31:31;;;;;;;;;;;;;;;-144.99;94.24;52715.13;5090560;28;19925;-77
2021/12/25 08:33:57;;;;;;;;;;;;;;;-144.99;92.75;52749.78;5076194;28;19924;-79
2021/12/25 08:36:24;;;;;;;;;;;;;;;-144.99;91.12;52753.84;5090411;28;19928;-77
2021/12/25 08:38:50;;;;;;;;;;;;;;;-144.99;90.02;52696.78;5091688;28;20573;-79
2021/12/25 08:41:16;;;;;;;;;;;;;;;-144.99;88.30;52709.00;5093048;28;19928;-79
2021/12/25 08:43:47;;;;;;;;;;;;;;;-144.99;86.52;52664.16;5097102;28;19924;-80
2021/12/25 08:46:17;;;;;;;;;;;;;;;-144.99;87.26;52741.63;5104062;28;19947;-79
2021/12/25 08:48:45;;;;;;;;;;;;;;;-144.99;86.49;52696.78;5109427;28;19939;-79
2021/12/25 08:51:14;;;;;;;;;;;;;;;-144.99;84.68;52700.84;5106830;28;19939;-79
2021/12/25 08:53:40;;;;;;;;;;;;;;;-144.99;82.63;52717.16;5104370;28;19928;-80
2021/12/25 08:56:06;;;;;;;;;;;;;;;-144.99;81.48;52717.16;5087983;28;19935;-79
2021/12/25 08:58:34;;;;;;;;;;;;;;;-144.99;79.83;52664.16;5093558;28;19924;-79
2021/12/25 09:01:01;;;;;;;;;;;;;;;-144.99;76.73;52692.69;5092831;28;20158;-79
2021/12/25 09:03:28;;;;;;;;;;;;;;;-144.99;73.08;52733.47;5091609;28;19928;-75
2021/12/25 09:05:57;;;;;;;;;;;;;;;-144.99;72.60;52717.16;5092783;28;20317;-79
2021/12/25 09:08:23;;;;;;;;;;;;;;;-144.99;71.14;52692.69;5092403;28;19932;-78
2021/12/25 09:10:49;;;;;;;;;;;;;;;-144.99;70.05;52678.44;5091380;28;19935;-78
2021/12/25 09:13:16;;;;;;;;;;;;;;;-144.99;68.38;52668.22;5091963;28;20044;-79
2021/12/25 09:15:42;;;;;;;;;;;;;;;-144.99;67.65;52700.84;5091596;28;19928;-78
2021/12/25 09:18:08;;;;;;;;;;;;;;;-144.99;67.23;52680.47;5091594;28;19932;-77
2021/12/25 09:20:35;;;;;;;;;;;;;;;-144.99;65.68;52676.38;5093538;28;20402;-82
2021/12/25 09:23:03;;;;;;;;;;;;;;;-144.99;65.13;52690.66;5089011;28;19959;-77
2021/12/25 09:25:29;;;;;;;;;;;;;;;-144.99;62.93;52700.84;5088717;28;19931;-78
2021/12/25 09:27:55;;;;;;;;;;;;;;;-144.99;62.70;52676.38;5091317;28;20441;-79
2021/12/25 09:30:22;;;;;;;;;;;;;;;-144.99;62.28;52653.97;5090903;28;19931;-78
2021/12/25 09:32:48;;;;;;;;;;;;;;;-144.99;61.56;52682.50;5091429;28;19924;-79
2021/12/25 09:35:15;;;;;;;;;;;;;;;-144.99;61.14;52700.84;5090488;28;19924;-80
2021/12/25 09:37:41;;;;;;;;;;;;;;;-144.99;60.41;52684.53;5091234;28;19985;-79
2021/12/25 09:40:10;;;;;;;;;;;;;;;-144.99;59.44;52662.13;5091105;28;19928;-79
2021/12/25 09:42:39;;;;;;;;;;;;;;;-144.99;57.26;52684.53;5096944;28;19928;-78
2021/12/25 09:45:05;;;;;;;;;;;;;;;-144.99;56.98;52639.69;5094621;28;19964;-78
2021/12/25 09:47:32;;;;;;;;;;;;;;;-144.99;55.65;52668.22;5100468;28;19924;-81
2021/12/25 09:49:58;;;;;;;;;;;;;;;-144.99;54.34;52615.25;5093636;28;19977;-75
2021/12/25 09:52:24;;;;;;;;;;;;;;;-144.99;52.86;52611.16;5091084;28;20005;-77
2021/12/25 09:54:51;;;;;;;151.67;66.67;;;;;;;-144.99;51.63;52615.25;5086335;28;24582;-78
2021/12/25 09:57:19;;;;;;;152.87;66.37;;;;;;;-144.99;50.58;52617.28;5081810;28;20633;-77
2021/12/25 09:59:47;;;;;;;188.40;73.25;;;;;;;-144.99;48.64;52605.03;5089713;28;21098;-76
2021/12/25 10:02:16;;;;;;;157.70;66.85;;;;;;;-144.99;47.46;52613.19;5090996;28;20587;-78
2021/12/25 10:04:46;;;;;;;130.17;61.67;;;;;;;-144.99;46.93;52600.97;5089140;28;20207;-77
2021/12/25 10:07:14;;;;;;;;;;;;;;;-144.99;45.77;52623.38;5084155;28;20704;-76
2021/12/25 10:09:40;;;;;;;;;;;;;;;-144.99;44.52;52586.69;5088178;28;20315;-77
2021/12/25 10:12:08;;;;;;;;;;;;;;;-144.99;42.39;52574.47;5090308;28;19920;-75
2021/12/25 10:14:37;;;;;;;;;;;;;;;-144.99;41.06;52594.84;5084697;28;19927;-77
2021/12/25 10:17:12;;;;;;;;;;;;;;;-144.99;40.12;52562.25;5091146;28;19920;-78
2021/12/25 10:19:39;;;;;;;184.05;73.68;;;;;;;-144.99;38.88;52562.25;5087673;28;24607;-78
2021/12/25 10:22:07;;;;;;;166.63;69.93;;;;;;;-144.99;38.60;52578.53;5089027;28;20203;-74
2021/12/25 10:24:41;;;;;;;163.23;70.70;;;;;;;-144.99;37.67;52501.09;5084652;28;21274;-77
2021/12/25 10:27:12;;;;;;;;;;;;;;;-144.99;36.68;52509.25;5090284;28;20624;-77
2021/12/25 10:29:41;;;;;;;;;;;;;;;-144.99;35.23;52525.56;5089291;28;19920;-77
2021/12/25 10:32:14;;;;;;;;;;;;;;;-144.99;35.32;52488.84;5090907;28;19924;-78
2021/12/25 10:34:41;;;;;;;;;;;;;;;-144.99;34.95;52488.84;5088224;28;19927;-78
2021/12/25 10:37:07;;;;;;;;;;;;;;;-144.99;34.13;52480.72;5090279;28;19920;-77
2021/12/25 10:39:34;;;;;;;173.35;73.75;;;;;;;-144.99;33.94;52462.34;5086820;28;24523;-78
2021/12/25 10:42:10;;;;;;;163.45;71.07;;;;;;;-144.99;33.60;52484.78;5089207;28;20213;-78
2021/12/25 10:44:39;;;;;;;149.73;67.10;;;;;;;-144.99;32.87;52431.78;5088404;28;20716;-76
2021/12/25 10:47:08;;;;;;;;;;;;;;;-144.99;32.49;52448.09;5090687;28;20268;-78
2021/12/25 10:49:38;;;;;;;155.38;70.75;;;;;;;-144.99;32.56;52492.94;5082338;28;24596;-77
2021/12/25 10:52:16;;;;;;;138.88;65.55;;;;;;;-144.99;32.57;52460.31;5079886;28;20223;-79
2021/12/25 10:54:45;;;;;;;;;;;;;;;-144.99;32.54;52407.31;5087278;28;20203;-76
2021/12/25 10:57:29;;;;;;;149.57;69.97;;;;;;;-144.99;32.55;52407.31;5086977;28;25035;-77
2021/12/25 10:59:56;;;;;;;134.73;66.28;;;;;;;-144.99;32.29;52419.56;5087411;28;20227;-78
2021/12/25 11:02:32;;;;;;;125.63;63.83;;;;;;;-144.99;31.98;52378.78;5091038;28;20621;-77
2021/12/25 11:04:59;;;;;;;119.72;63.33;;;;;;;-144.99;31.34;52358.41;5087519;28;20578;-75
2021/12/25 11:07:27;;;;;;;117.68;62.95;;;;;;;-144.99;31.25;52374.72;5088088;28;20814;-78
2021/12/25 11:10:09;;;;;;;115.10;62.35;;;;;;;-144.99;30.82;52419.56;5085944;28;20769;-77
2021/12/25 11:12:36;;;;;;;111.82;61.03;;;;;;;-144.99;31.12;52382.88;5088422;28;20220;-78
2021/12/25 11:15:10;;;;;;;112.57;61.85;;;;;;;-144.99;31.45;52382.88;5087835;28;20210;-78
2021/12/25 11:17:40;;;;;;;109.60;60.92;;;;;;;-144.99;31.38;52407.31;5091659;28;20211;-76
2021/12/25 11:20:08;;;;;;;107.28;60.67;;;;;;;-144.99;30.71;52346.19;5095317;28;20233;-78
2021/12/25 11:22:47;;;;;;;96.67;57.47;;;;;;;-144.99;30.55;52403.25;5091902;28;20211;-76
2021/12/25 11:25:14;;;;;;;94.27;57.63;;;;;;;-144.99;29.87;52386.94;5087517;28;20210;-80
2021/12/25 11:27:40;;;;;;;97.75;58.97;;;;;;;-144.99;29.63;52411.41;5108609;28;20210;-80
2021/12/25 11:30:08;;;;;;;;;;;;;;;-144.99;29.65;52378.78;5104390;28;20241;-81
2021/12/25 11:32:34;;;;;;;;;;;;;;;-144.99;29.79;52407.31;4393509;28;10000875;-79
2021/12/25 11:35:02;;;;;;;86.40;59.50;;;;;;;-144.99;29.10;52386.94;5091948;28;20224;-80
2021/12/25 11:37:30;;;;;;;74.30;49.20;;;;;;;-144.99;29.46;52382.88;5079571;28;20348;-80
2021/12/25 11:39:57;;;;;;;85.00;55.73;;;;;;;-144.99;29.26;52354.34;5091856;28;20230;-80
2021/12/25 11:42:28;;;;;;;95.47;59.20;;;;;;;-144.99;28.91;52362.50;5102450;28;20211;-80
2021/12/25 11:44:55;;;;;;;95.47;58.80;;;;;;;-144.99;28.82;52360.44;5089631;28;20219;-80
2021/12/25 11:47:36;;;;;;;95.38;59.45;;;;;;;-144.99;28.56;52378.78;5095330;28;20303;-78
2021/12/25 11:50:09;;;;;;;90.95;58.72;;;;;;;-144.99;28.24;52358.41;5087549;28;20264;-82
2021/12/25 11:52:42;;;;;;;94.53;59.88;;;;;;;-144.99;28.61;52382.88;5094137;28;20592;-81
2021/12/25 11:55:34;;;;;;;98.97;60.53;;;;;;;-144.99;28.25;52331.91;5088777;28;20212;-82
2021/12/25 11:58:16;;;;;;;86.78;57.45;;;;;;;-144.99;28.00;52362.50;5086195;28;20207;-77
2021/12/25 12:00:46;;;;;;;83.68;56.92;;;;;;;-144.99;27.85;52397.13;5090978;28;20207;-77
2021/12/25 12:03:38;;;;;;;73.50;56.60;;;;;;;-144.99;27.94;52372.69;5089014;28;20203;-78
2021/12/25 12:06:06;;;;;;;;;;;;;;;-144.99;28.06;52350.25;5087900;28;20234;-81
2021/12/25 12:09:01;;;;;;;148.70;73.97;;;;;;;-144.99;28.10;52401.22;5086446;28;24530;-80
2021/12/25 12:11:30;;;;;;;122.27;66.80;;;;;;;-144.99;28.39;52395.09;5080131;28;20220;-81
2021/12/25 12:14:15;;;;;;;114.10;65.47;;;;;;;-144.99;28.07;52427.72;5090935;28;20623;-79
2021/12/25 12:16:43;;;;;;;107.97;63.27;;;;;;;-144.99;28.56;52391.03;5092537;28;20653;-82
2021/12/25 12:19:46;;;;;;;97.67;60.43;;;;;;;-144.99;28.89;52407.31;5097453;28;20637;-82
2021/12/25 12:25:31;;;;;;;83.70;56.13;;;;;;;-144.99;28.59;52427.72;5082425;28;20283;-79
2021/12/25 12:28:00;;;;;;;87.10;58.08;;;;;;;-144.99;28.72;52407.31;5092975;28;20226;-81
2021/12/25 12:30:42;;;;;;;89.10;58.45;;;;;;;-144.99;28.70;52409.38;5099174;28;20325;-82
2021/12/25 12:33:33;;;;;;;86.88;57.75;;;;;;;-144.99;28.30;52378.78;5100143;28;20243;-82
2021/12/25 12:36:00;;;;;;;79.55;55.10;;;;;;;-144.99;28.17;52378.78;5085139;28;20218;-82
2021/12/25 12:38:40;;;;;;;80.97;55.33;;;;;;;-144.99;28.74;52452.16;5091296;28;20211;-79
2021/12/25 12:41:25;;;;;;;83.47;56.35;;;;;;;-144.99;28.92;52435.88;5100053;28;20245;-79
2021/12/25 12:43:55;;;;;;;77.90;54.60;;;;;;;-144.99;29.17;52427.72;5096765;28;20228;-83
2021/12/25 12:46:22;;;;;;;79.70;56.23;;;;;;;-144.99;28.85;52407.31;5093204;28;20208;-82
2021/12/25 12:49:04;;;;;;;79.20;55.27;;;;;;;-144.99;28.79;52439.94;5109145;28;20226;-80
2021/12/25 12:51:31;;;;;;;80.20;55.65;;;;;;;-144.99;28.67;52472.56;5109097;28;20234;-80
2021/12/25 12:54:00;;;;;;;76.90;54.50;;;;;;;-144.99;28.61;52464.41;5109585;28;20231;-80
2021/12/25 12:56:26;;;;;;;77.73;54.77;;;;;;;-144.99;28.34;52517.41;5114006;28;20219;-84
2021/12/25 12:58:53;;;;;;;;;;;;;;;-144.99;28.58;52448.09;5109363;28;20216;-83
2021/12/25 13:01:20;;;;;;;132.57;69.93;;;;;;;-144.99;28.42;52509.25;5108847;28;24510;-82
2021/12/25 13:03:47;;;;;;;96.40;60.15;;;;;;;-144.99;28.36;52490.91;5104439;28;20235;-82
2021/12/25 13:06:15;;;;;;;93.97;59.53;;;;;;;-144.99;28.48;52513.31;5108721;28;20241;-84
2021/12/25 13:08:44;;;;;;;93.00;59.45;;;;;;;-144.99;28.35;52466.44;5108180;28;20239;-82
2021/12/25 13:11:21;;;;;;;87.63;57.97;;;;;;;-144.99;28.35;52464.41;5109079;28;20234;-83